CAT,Max TemperatureF,Mean TemperatureF,Min TemperatureF,Max Dew PointF,MeanDew PointF,Min DewpointF,Max Humidity, Mean Humidity, Min Humidity, Max Sea Level PressureIn, Mean Sea Level PressureIn, Min Sea Level PressureIn, Max VisibilityMiles, Mean VisibilityMiles, Min VisibilityMiles, Max Wind SpeedMPH, Mean Wind SpeedMPH, Max Gust SpeedMPH,PrecipitationIn, CloudCover, Events, WindDirDegrees
2012-1-1,73,68,64,66,65,63,100,93,78,30.12,30.08,30.04,6,6,2,10,4,,0.00,6,Rain,80
2012-1-2,80,71,62,64,61,55,100,71,42,30.12,30.08,30.01,6,6,2,10,5,,0.00,5,Fog,126
2012-1-3,80,70,60,63,56,37,100,65,35,30.15,30.09,30.04,6,4,0,10,5,,0.00,3,Fog,138
2012-1-4,80,70,59,64,61,54,88,76,51,30.18,30.11,30.06,6,6,6,13,7,,0.00,5,Rain-Thunderstorm,101
2012-1-5,84,73,62,64,59,52,94,69,33,30.36,30.13,30.06,6,6,6,9,7,,0.00,4,,117
2012-1-6,80,70,60,63,57,52,94,61,42,30.18,30.11,30.04,6,6,6,12,7,,0.00,2,,147
2012-1-7,80,68,55,59,56,54,94,66,42,30.18,30.13,30.09,6,6,6,9,6,,0.00,4,,135
2012-1-8,82,71,60,59,55,50,88,56,32,30.18,30.13,30.06,6,6,6,9,6,,0.00,6,,135
2012-1-9,82,71,60,61,57,50,88,63,34,30.15,30.10,30.01,6,6,6,9,6,,0.00,3,,137
2012-1-10,84,72,60,63,58,54,83,62,39,30.15,30.08,30.01,6,6,6,12,7,,0.00,2,,63
2012-1-11,80,73,66,64,62,59,88,73,51,30.15,30.10,30.04,6,6,6,12,7,,0.00,5,Rain-Thunderstorm,44
2012-1-12,80,72,64,64,62,59,94,78,48,30.15,30.11,29.95,6,6,3,12,8,,0.00,5,Rain-Thunderstorm,35
2012-1-13,77,70,62,64,62,61,100,83,57,30.15,30.11,30.04,6,6,3,14,7,18,0.00,6,Rain-Thunderstorm,71
2012-1-14,77,68,60,66,63,61,100,86,61,30.12,30.07,30.01,6,6,5,10,6,,0.00,6,Rain-Thunderstorm,96
2012-1-15,77,70,64,63,59,55,94,71,50,30.12,30.09,30.04,6,6,6,10,5,,0.00,5,,139
2012-1-16,78,68,59,63,59,57,100,75,54,30.09,30.03,29.95,6,6,6,10,6,,0.00,6,,147
2012-1-17,82,70,59,61,57,50,88,67,32,30.06,30.00,29.92,6,6,6,8,5,,0.00,4,,123
2012-1-18,82,73,64,66,63,59,94,79,48,30.06,30.00,29.95,6,6,4,14,8,,0.00,6,Rain-Thunderstorm,50
2012-1-19,75,68,60,64,63,61,100,87,65,30.04,30.00,29.95,6,6,1,12,7,,0.00,6,Rain-Thunderstorm,62
2012-1-20,75,68,62,66,63,61,100,84,61,30.04,29.97,29.89,6,6,5,13,4,,0.00,6,Rain-Thunderstorm,148
2012-1-21,75,68,62,64,62,61,94,84,65,29.98,29.96,29.92,6,6,6,12,6,,0.00,6,,176
2012-1-22,78,69,60,66,63,61,100,85,61,30.06,29.98,29.89,6,6,6,13,6,17,0.00,5,Fog,189
2012-1-23,80,70,60,64,62,61,100,80,51,30.06,30.02,29.95,6,6,6,13,4,,0.00,6,Rain-Thunderstorm,129
2012-1-24,82,72,62,66,64,61,100,83,54,30.04,29.98,29.89,6,6,6,16,5,,0.00,6,,275
2012-1-25,77,70,64,68,64,63,100,86,65,30.06,30.00,29.92,6,6,1,7,2,,0.00,6,Rain-Thunderstorm,41
2012-1-26,71,68,64,64,63,61,94,85,73,30.12,30.06,30.01,6,6,6,12,6,,0.00,6,,122
2012-1-27,78,69,60,61,57,52,94,71,41,30.15,30.10,30.06,6,6,6,9,7,,0.00,5,,123
2012-1-28,80,68,57,64,58,55,94,73,47,30.15,30.09,30.04,6,6,6,10,5,17,0.00,5,,75
2012-1-29,80,72,64,63,60,55,94,65,42,30.12,30.06,29.98,6,6,6,10,7,,0.00,4,,58
2012-1-30,80,70,59,63,59,57,100,67,45,30.09,30.03,29.95,6,6,6,7,5,,0.00,3,,118
2012-1-31,82,71,60,66,62,59,100,75,48,30.09,30.05,30.01,6,6,5,15,6,,0.00,3,,8